PRIVATE WETTERSTATION BILLIGHEIM-ALLFELD                       ZURCK
Wetterdaten: Dienstag, 19.09.2017
Datum Zeit Temp. A. Temp. A. min Temp. A. max Feuchte A. Luftdruck Regen Wind Richtung Richtung Sonnenschein ET Solar Taupunkt Windchill Windben Empfang
19.09.2017 00:00 8,3 C 8,3 C 8,4 C 89 % 1016,9 hPa 0,0 l/m 0,0 km/h (0 Bft) N 0 0 min 0,000 mm 0 W/m 6,6 C 8,3 C 0,0 km/h (0 Bft) 100 %
19.09.2017 00:10 8,3 C 8,3 C 8,3 C 89 % 1016,8 hPa 0,0 l/m 0,0 km/h (0 Bft) N 0 0 min 0,000 mm 0 W/m 6,6 C 8,3 C 0,0 km/h (0 Bft) 81 %
19.09.2017 00:20 8,6 C 8,3 C 8,6 C 89 % 1016,8 hPa 0,0 l/m 0,0 km/h (0 Bft) N 0 0 min 0,000 mm 0 W/m 6,9 C 8,6 C 0,0 km/h (0 Bft) 100 %
19.09.2017 00:30 8,5 C 8,5 C 8,6 C 89 % 1016,8 hPa 0,0 l/m 0,0 km/h (0 Bft) N 0 0 min 0,000 mm 0 W/m 6,8 C 8,5 C 0,0 km/h (0 Bft) 100 %
19.09.2017 00:40 8,4 C 8,4 C 8,5 C 89 % 1016,8 hPa 0,0 l/m 0,0 km/h (0 Bft) N 0 0 min 0,000 mm 0 W/m 6,7 C 8,4 C 0,0 km/h (0 Bft) 100 %
19.09.2017 00:50 8,3 C 8,3 C 8,4 C 89 % 1016,7 hPa 0,0 l/m 0,0 km/h (0 Bft) N 0 0 min 0,000 mm 0 W/m 6,6 C 8,3 C 0,0 km/h (0 Bft) 89 %
19.09.2017 01:00 8,2 C 8,2 C 8,3 C 89 % 1016,7 hPa 0,0 l/m 0,0 km/h (0 Bft) N 0 0 min 0,000 mm 0 W/m 6,5 C 8,2 C 0,0 km/h (0 Bft) 100 %
19.09.2017 01:10 8,3 C 8,2 C 8,3 C 89 % 1016,7 hPa 0,0 l/m 0,0 km/h (0 Bft) N 0 0 min 0,000 mm 0 W/m 6,6 C 8,3 C 0,0 km/h (0 Bft) 100 %
19.09.2017 01:20 8,7 C 8,3 C 8,7 C 89 % 1016,7 hPa 0,0 l/m 0,0 km/h (0 Bft) S 180 0 min 0,000 mm 0 W/m 7,0 C 8,7 C 1,6 km/h (1 Bft) 100 %
19.09.2017 01:30 8,9 C 8,7 C 8,9 C 89 % 1016,7 hPa 0,0 l/m 0,0 km/h (0 Bft) N 0 0 min 0,000 mm 0 W/m 7,2 C 8,9 C 0,0 km/h (0 Bft) 100 %
19.09.2017 01:40 9,0 C 8,9 C 9,0 C 89 % 1016,7 hPa 0,0 l/m 1,6 km/h (1 Bft) S 180 0 min 0,000 mm 0 W/m 7,3 C 9,0 C 4,8 km/h (1 Bft) 100 %
19.09.2017 01:50 9,1 C 9,0 C 9,1 C 89 % 1016,7 hPa 0,0 l/m 0,0 km/h (0 Bft) N 0 0 min 0,000 mm 0 W/m 7,4 C 9,1 C 0,0 km/h (0 Bft) 98 %
19.09.2017 02:00 9,1 C 9,1 C 9,1 C 89 % 1016,6 hPa 0,0 l/m 0,0 km/h (0 Bft) N 0 0 min 0,000 mm 0 W/m 7,4 C 9,1 C 0,0 km/h (0 Bft) 100 %
19.09.2017 02:10 9,2 C 9,1 C 9,2 C 89 % 1016,6 hPa 0,0 l/m 0,0 km/h (0 Bft) N 0 0 min 0,000 mm 0 W/m 7,5 C 9,2 C 0,0 km/h (0 Bft) 100 %
19.09.2017 02:20 9,2 C 9,2 C 9,2 C 89 % 1016,6 hPa 0,0 l/m 0,0 km/h (0 Bft) N 0 0 min 0,000 mm 0 W/m 7,5 C 9,2 C 0,0 km/h (0 Bft) 100 %
19.09.2017 02:30 9,2 C 9,2 C 9,2 C 89 % 1016,5 hPa 0,0 l/m 0,0 km/h (0 Bft) N 0 0 min 0,000 mm 0 W/m 7,5 C 9,2 C 0,0 km/h (0 Bft) 100 %
19.09.2017 02:40 9,2 C 9,2 C 9,2 C 89 % 1016,6 hPa 0,0 l/m 0,0 km/h (0 Bft) N 0 0 min 0,000 mm 0 W/m 7,5 C 9,2 C 0,0 km/h (0 Bft) 100 %
19.09.2017 02:50 9,2 C 9,2 C 9,2 C 89 % 1016,5 hPa 0,0 l/m 0,0 km/h (0 Bft) N 0 0 min 0,000 mm 0 W/m 7,5 C 9,2 C 0,0 km/h (0 Bft) 100 %
19.09.2017 03:00 9,2 C 9,2 C 9,2 C 89 % 1016,5 hPa 0,0 l/m 0,0 km/h (0 Bft) N 0 0 min 0,000 mm 0 W/m 7,5 C 9,2 C 0,0 km/h (0 Bft) 100 %
19.09.2017 03:10 9,2 C 9,2 C 9,2 C 89 % 1016,4 hPa 0,0 l/m 0,0 km/h (0 Bft) N 0 0 min 0,000 mm 0 W/m 7,5 C 9,2 C 0,0 km/h (0 Bft) 100 %
19.09.2017 03:20 9,3 C 9,2 C 9,3 C 89 % 1016,4 hPa 0,0 l/m 0,0 km/h (0 Bft) SO 135 0 min 0,000 mm 0 W/m 7,6 C 9,3 C 3,2 km/h (1 Bft) 100 %
19.09.2017 03:30 9,3 C 9,3 C 9,3 C 89 % 1016,4 hPa 0,0 l/m 0,0 km/h (0 Bft) SO 135 0 min 0,000 mm 0 W/m 7,6 C 9,3 C 1,6 km/h (1 Bft) 100 %
19.09.2017 03:40 9,3 C 9,3 C 9,3 C 89 % 1016,3 hPa 0,0 l/m 0,0 km/h (0 Bft) N 0 0 min 0,000 mm 0 W/m 7,6 C 9,3 C 0,0 km/h (0 Bft) 91 %
19.09.2017 03:50 9,2 C 9,2 C 9,3 C 89 % 1016,3 hPa 0,0 l/m 0,0 km/h (0 Bft) N 0 0 min 0,000 mm 0 W/m 7,5 C 9,2 C 0,0 km/h (0 Bft) 100 %
19.09.2017 04:00 9,1 C 9,1 C 9,2 C 89 % 1016,3 hPa 0,0 l/m 0,0 km/h (0 Bft) N 0 0 min 0,000 mm 0 W/m 7,4 C 9,1 C 0,0 km/h (0 Bft) 100 %
19.09.2017 04:10 9,1 C 9,1 C 9,1 C 89 % 1016,2 hPa 0,0 l/m 1,6 km/h (1 Bft) SO 135 0 min 0,000 mm 0 W/m 7,4 C 9,1 C 4,8 km/h (1 Bft) 100 %
19.09.2017 04:20 9,0 C 9,0 C 9,1 C 89 % 1016,2 hPa 0,0 l/m 1,6 km/h (1 Bft) SO 135 0 min 0,000 mm 0 W/m 7,3 C 9,0 C 4,8 km/h (1 Bft) 100 %
19.09.2017 04:30 8,9 C 8,9 C 9,0 C 89 % 1016,2 hPa 0,0 l/m 0,0 km/h (0 Bft) N 0 0 min 0,000 mm 0 W/m 7,2 C 8,9 C 0,0 km/h (0 Bft) 100 %
19.09.2017 04:40 8,8 C 8,8 C 8,9 C 89 % 1016,3 hPa 0,0 l/m 0,0 km/h (0 Bft) SO 135 0 min 0,000 mm 0 W/m 7,1 C 8,8 C 1,6 km/h (1 Bft) 100 %
19.09.2017 04:50 8,6 C 8,6 C 8,8 C 89 % 1016,2 hPa 0,0 l/m 0,0 km/h (0 Bft) SO 135 0 min 0,000 mm 0 W/m 6,9 C 8,6 C 1,6 km/h (1 Bft) 100 %
19.09.2017 05:00 8,6 C 8,6 C 8,6 C 89 % 1016,2 hPa 0,0 l/m 0,0 km/h (0 Bft) SO 135 0 min 0,000 mm 0 W/m 6,9 C 8,6 C 1,6 km/h (1 Bft) 100 %
19.09.2017 05:10 8,4 C 8,4 C 8,6 C 89 % 1016,1 hPa 0,0 l/m 1,6 km/h (1 Bft) SO 135 0 min 0,000 mm 0 W/m 6,7 C 8,4 C 6,4 km/h (2 Bft) 100 %
19.09.2017 05:20 8,3 C 8,3 C 8,4 C 89 % 1016,1 hPa 0,0 l/m 1,6 km/h (1 Bft) SO 135 0 min 0,000 mm 0 W/m 6,6 C 8,3 C 6,4 km/h (2 Bft) 99 %
19.09.2017 05:30 8,2 C 8,2 C 8,3 C 89 % 1016,1 hPa 0,0 l/m 0,0 km/h (0 Bft) N 0 0 min 0,000 mm 0 W/m 6,5 C 8,2 C 0,0 km/h (0 Bft) 100 %
19.09.2017 05:40 8,2 C 8,2 C 8,3 C 89 % 1016,1 hPa 0,0 l/m 1,6 km/h (1 Bft) SO 135 0 min 0,000 mm 0 W/m 6,5 C 8,2 C 6,4 km/h (2 Bft) 100 %
19.09.2017 05:50 8,2 C 8,2 C 8,3 C 89 % 1016,1 hPa 0,0 l/m 0,0 km/h (0 Bft) SO 135 0 min 0,000 mm 0 W/m 6,5 C 8,2 C 6,4 km/h (2 Bft) 99 %
19.09.2017 06:00 8,2 C 8,2 C 8,2 C 89 % 1016,1 hPa 0,0 l/m 0,0 km/h (0 Bft) N 0 0 min 0,000 mm 0 W/m 6,5 C 8,2 C 0,0 km/h (0 Bft) 100 %
19.09.2017 06:10 8,3 C 8,2 C 8,3 C 89 % 1016,0 hPa 0,0 l/m 0,0 km/h (0 Bft) N 0 0 min 0,000 mm 0 W/m 6,6 C 8,3 C 0,0 km/h (0 Bft) 100 %
19.09.2017 06:20 8,3 C 8,3 C 8,4 C 89 % 1016,1 hPa 0,0 l/m 0,0 km/h (0 Bft) N 0 0 min 0,000 mm 0 W/m 6,6 C 8,3 C 0,0 km/h (0 Bft) 91 %
19.09.2017 06:30 8,4 C 8,3 C 8,4 C 89 % 1016,1 hPa 0,0 l/m 0,0 km/h (0 Bft) N 0 0 min 0,000 mm 0 W/m 6,7 C 8,4 C 0,0 km/h (0 Bft) 100 %
19.09.2017 06:40 8,4 C 8,4 C 8,4 C 89 % 1016,1 hPa 0,0 l/m 0,0 km/h (0 Bft) N 0 0 min 0,000 mm 0 W/m 6,7 C 8,4 C 0,0 km/h (0 Bft) 100 %
19.09.2017 06:50 8,4 C 8,4 C 8,4 C 89 % 1016,1 hPa 0,0 l/m 0,0 km/h (0 Bft) N 0 0 min 0,000 mm 0 W/m 6,7 C 8,4 C 0,0 km/h (0 Bft) 100 %
19.09.2017 07:00 8,5 C 8,4 C 8,5 C 89 % 1016,3 hPa 0,0 l/m 0,0 km/h (0 Bft) N 0 0 min 0,000 mm 0 W/m 6,8 C 8,5 C 0,0 km/h (0 Bft) 100 %
19.09.2017 07:10 8,6 C 8,5 C 8,6 C 89 % 1016,4 hPa 0,0 l/m 0,0 km/h (0 Bft) N 0 0 min 0,000 mm 0 W/m 6,9 C 8,6 C 0,0 km/h (0 Bft) 100 %
19.09.2017 07:20 8,6 C 8,6 C 8,6 C 89 % 1016,5 hPa 0,0 l/m 0,0 km/h (0 Bft) SO 135 0 min 0,000 mm 0 W/m 6,9 C 8,6 C 4,8 km/h (1 Bft) 100 %
19.09.2017 07:30 8,6 C 8,6 C 8,7 C 89 % 1016,6 hPa 0,0 l/m 0,0 km/h (0 Bft) SO 135 0 min 0,000 mm 7 W/m 6,9 C 8,6 C 1,6 km/h (1 Bft) 100 %
19.09.2017 07:40 8,7 C 8,6 C 8,7 C 89 % 1016,6 hPa 0,0 l/m 0,0 km/h (0 Bft) S-SO 157 0 min 0,000 mm 7 W/m 7,0 C 8,7 C 4,8 km/h (1 Bft) 100 %
19.09.2017 07:50 8,6 C 8,6 C 8,7 C 89 % 1016,7 hPa 0,0 l/m 0,0 km/h (0 Bft) S-SO 157 0 min 0,000 mm 12 W/m 6,9 C 8,6 C 4,8 km/h (1 Bft) 100 %
19.09.2017 08:00 8,7 C 8,6 C 8,7 C 89 % 1016,7 hPa 0,0 l/m 0,0 km/h (0 Bft) S-SO 157 0 min 0,000 mm 12 W/m 7,0 C 8,7 C 4,8 km/h (1 Bft) 100 %
19.09.2017 08:10 8,8 C 8,7 C 8,8 C 89 % 1016,6 hPa 0,0 l/m 0,0 km/h (0 Bft) N 0 0 min 0,000 mm 23 W/m 7,1 C 8,8 C 0,0 km/h (0 Bft) 100 %
19.09.2017 08:20 8,8 C 8,8 C 8,8 C 89 % 1016,6 hPa 0,0 l/m 0,0 km/h (0 Bft) S-SO 157 0 min 0,000 mm 21 W/m 7,1 C 8,8 C 1,6 km/h (1 Bft) 100 %
19.09.2017 08:30 8,9 C 8,8 C 8,9 C 89 % 1016,6 hPa 0,0 l/m 0,0 km/h (0 Bft) N 0 0 min 0,000 mm 35 W/m 7,2 C 8,9 C 0,0 km/h (0 Bft) 100 %
19.09.2017 08:40 9,1 C 8,9 C 9,1 C 89 % 1016,6 hPa 0,0 l/m 0,0 km/h (0 Bft) N 0 0 min 0,000 mm 51 W/m 7,4 C 9,1 C 0,0 km/h (0 Bft) 100 %
19.09.2017 08:50 9,2 C 9,1 C 9,2 C 89 % 1016,6 hPa 0,0 l/m 1,6 km/h (1 Bft) S-SO 157 0 min 0,000 mm 72 W/m 7,5 C 9,2 C 4,8 km/h (1 Bft) 100 %
19.09.2017 09:00 9,3 C 9,2 C 9,3 C 89 % 1016,6 hPa 0,0 l/m 3,2 km/h (1 Bft) S-SO 157 0 min 0,025 mm 93 W/m 7,6 C 9,3 C 8,0 km/h (2 Bft) 100 %
19.09.2017 09:10 9,4 C 9,3 C 9,4 C 89 % 1016,6 hPa 0,0 l/m 1,6 km/h (1 Bft) S 180 0 min 0,000 mm 77 W/m 7,7 C 9,4 C 8,0 km/h (2 Bft) 100 %
19.09.2017 09:20 9,4 C 9,4 C 9,4 C 89 % 1016,8 hPa 0,0 l/m 3,2 km/h (1 Bft) S-SO 157 0 min 0,000 mm 105 W/m 7,7 C 9,4 C 8,0 km/h (2 Bft) 100 %
19.09.2017 09:30 9,3 C 9,3 C 9,4 C 89 % 1016,8 hPa 0,0 l/m 3,2 km/h (1 Bft) S-SO 157 0 min 0,000 mm 95 W/m 7,6 C 9,3 C 9,7 km/h (2 Bft) 100 %
19.09.2017 09:40 9,4 C 9,3 C 9,4 C 89 % 1016,8 hPa 0,0 l/m 3,2 km/h (1 Bft) S-SO 157 0 min 0,000 mm 79 W/m 7,7 C 9,4 C 9,7 km/h (2 Bft) 100 %
19.09.2017 09:50 9,5 C 9,4 C 9,5 C 89 % 1016,8 hPa 0,0 l/m 3,2 km/h (1 Bft) S-SO 157 0 min 0,000 mm 148 W/m 7,8 C 9,5 C 8,0 km/h (2 Bft) 100 %
19.09.2017 10:00 9,7 C 9,5 C 9,7 C 89 % 1016,7 hPa 0,0 l/m 1,6 km/h (1 Bft) S-SO 157 10 min 0,051 mm 218 W/m 8,0 C 9,7 C 6,4 km/h (2 Bft) 100 %
19.09.2017 10:10 9,8 C 9,7 C 9,8 C 89 % 1016,8 hPa 0,0 l/m 1,6 km/h (1 Bft) S-SW 202 0 min 0,000 mm 127 W/m 8,1 C 9,8 C 9,7 km/h (2 Bft) 99 %
19.09.2017 10:20 10,0 C 9,8 C 10,0 C 89 % 1016,9 hPa 0,0 l/m 1,6 km/h (1 Bft) SW 225 10 min 0,000 mm 155 W/m 8,3 C 10,0 C 9,7 km/h (2 Bft) 100 %
19.09.2017 10:30 10,1 C 10,0 C 10,1 C 89 % 1016,9 hPa 0,0 l/m 0,0 km/h (0 Bft) S-SW 202 10 min 0,000 mm 165 W/m 8,4 C 10,1 C 6,4 km/h (2 Bft) 100 %
19.09.2017 10:40 10,4 C 10,1 C 10,4 C 89 % 1016,9 hPa 0,0 l/m 0,0 km/h (0 Bft) S-SW 202 10 min 0,000 mm 204 W/m 8,7 C 10,4 C 4,8 km/h (1 Bft) 100 %
19.09.2017 10:50 10,4 C 10,4 C 10,4 C 90 % 1016,9 hPa 0,0 l/m 1,6 km/h (1 Bft) S-SW 202 10 min 0,000 mm 158 W/m 8,8 C 10,4 C 6,4 km/h (2 Bft) 100 %
19.09.2017 11:00 10,6 C 10,4 C 10,6 C 90 % 1017,0 hPa 0,0 l/m 1,6 km/h (1 Bft) S 180 0 min 0,051 mm 91 W/m 9,0 C 10,6 C 6,4 km/h (2 Bft) 100 %
19.09.2017 11:10 10,7 C 10,5 C 10,7 C 89 % 1017,2 hPa 0,0 l/m 1,6 km/h (1 Bft) S-SW 202 0 min 0,000 mm 105 W/m 9,0 C 10,7 C 6,4 km/h (2 Bft) 100 %
19.09.2017 11:20 10,8 C 10,7 C 10,8 C 89 % 1017,2 hPa 0,0 l/m 0,0 km/h (0 Bft) SW 225 0 min 0,000 mm 113 W/m 9,1 C 10,8 C 1,6 km/h (1 Bft) 100 %
19.09.2017 11:30 11,0 C 10,8 C 11,0 C 89 % 1017,2 hPa 0,0 l/m 0,0 km/h (0 Bft) N 0 10 min 0,000 mm 185 W/m 9,3 C 11,0 C 0,0 km/h (0 Bft) 100 %
19.09.2017 11:40 11,3 C 11,0 C 11,3 C 89 % 1017,1 hPa 0,0 l/m 0,0 km/h (0 Bft) SW 225 10 min 0,000 mm 216 W/m 9,6 C 11,3 C 1,6 km/h (1 Bft) 100 %
19.09.2017 11:50 11,6 C 11,3 C 11,6 C 89 % 1017,2 hPa 0,0 l/m 1,6 km/h (1 Bft) W-SW 247 10 min 0,000 mm 255 W/m 9,8 C 11,6 C 8,0 km/h (2 Bft) 100 %
19.09.2017 12:00 11,7 C 11,6 C 11,7 C 88 % 1017,1 hPa 0,0 l/m 1,6 km/h (1 Bft) W 270 0 min 0,076 mm 141 W/m 9,8 C 11,7 C 6,4 km/h (2 Bft) 100 %
19.09.2017 12:10 11,7 C 11,7 C 11,7 C 87 % 1017,2 hPa 0,0 l/m 0,0 km/h (0 Bft) N 0 0 min 0,000 mm 135 W/m 9,6 C 11,7 C 0,0 km/h (0 Bft) 100 %
19.09.2017 12:20 11,9 C 11,7 C 11,9 C 87 % 1017,2 hPa 0,0 l/m 0,0 km/h (0 Bft) W-SW 247 10 min 0,000 mm 213 W/m 9,8 C 11,9 C 6,4 km/h (2 Bft) 99 %
19.09.2017 12:30 11,9 C 11,9 C 11,9 C 85 % 1017,0 hPa 0,0 l/m 0,0 km/h (0 Bft) W-SW 247 10 min 0,000 mm 301 W/m 9,5 C 11,9 C 4,8 km/h (1 Bft) 98 %
19.09.2017 12:40 12,3 C 11,9 C 12,3 C 85 % 1017,1 hPa 0,0 l/m 1,6 km/h (1 Bft) W-SW 247 10 min 0,000 mm 301 W/m 9,9 C 12,3 C 6,4 km/h (2 Bft) 98 %
19.09.2017 12:50 12,6 C 12,3 C 12,6 C 84 % 1016,9 hPa 0,0 l/m 3,2 km/h (1 Bft) W-NW 292 10 min 0,000 mm 237 W/m 10,0 C 12,6 C 9,7 km/h (2 Bft) 98 %
19.09.2017 13:00 12,8 C 12,6 C 12,8 C 83 % 1017,1 hPa 0,0 l/m 3,2 km/h (1 Bft) W 270 10 min 0,102 mm 325 W/m 10,0 C 12,8 C 8,0 km/h (2 Bft) 98 %
19.09.2017 13:10 12,9 C 12,8 C 12,9 C 82 % 1017,0 hPa 0,0 l/m 3,2 km/h (1 Bft) W-NW 292 10 min 0,000 mm 364 W/m 9,9 C 12,9 C 11,3 km/h (2 Bft) 88 %
19.09.2017 13:20 13,3 C 12,9 C 13,3 C 82 % 1016,9 hPa 0,0 l/m 1,6 km/h (1 Bft) W-SW 247 10 min 0,000 mm 592 W/m 10,3 C 13,3 C 9,7 km/h (2 Bft) 98 %
19.09.2017 13:30 13,8 C 13,3 C 13,8 C 80 % 1016,9 hPa 0,0 l/m 3,2 km/h (1 Bft) W-SW 247 10 min 0,000 mm 619 W/m 10,4 C 13,8 C 11,3 km/h (2 Bft) 98 %
19.09.2017 13:40 14,1 C 13,8 C 14,1 C 81 % 1016,9 hPa 0,0 l/m 1,6 km/h (1 Bft) W-NW 292 10 min 0,000 mm 492 W/m 10,9 C 14,1 C 9,7 km/h (2 Bft) 98 %
19.09.2017 13:50 14,1 C 14,0 C 14,1 C 79 % 1016,8 hPa 0,0 l/m 1,6 km/h (1 Bft) W-NW 292 10 min 0,000 mm 362 W/m 10,5 C 14,1 C 9,7 km/h (2 Bft) 98 %
19.09.2017 14:00 14,1 C 14,1 C 14,1 C 79 % 1016,7 hPa 0,0 l/m 0,0 km/h (0 Bft) W-NW 292 10 min 0,203 mm 323 W/m 10,5 C 14,1 C 1,6 km/h (1 Bft) 98 %
19.09.2017 14:10 14,1 C 14,1 C 14,1 C 78 % 1016,7 hPa 0,0 l/m 3,2 km/h (1 Bft) NW 315 10 min 0,000 mm 589 W/m 10,3 C 14,1 C 14,5 km/h (3 Bft) 98 %
19.09.2017 14:20 14,4 C 14,1 C 14,4 C 78 % 1016,8 hPa 0,0 l/m 0,0 km/h (0 Bft) NW 315 10 min 0,000 mm 357 W/m 10,6 C 14,4 C 6,4 km/h (2 Bft) 97 %
19.09.2017 14:30 14,4 C 14,3 C 14,4 C 76 % 1016,8 hPa 0,0 l/m 1,6 km/h (1 Bft) W-NW 292 10 min 0,000 mm 888 W/m 10,2 C 14,4 C 8,0 km/h (2 Bft) 98 %
19.09.2017 14:40 14,8 C 14,4 C 14,8 C 76 % 1016,7 hPa 0,0 l/m 1,6 km/h (1 Bft) W 270 10 min 0,000 mm 921 W/m 10,6 C 14,8 C 8,0 km/h (2 Bft) 98 %
19.09.2017 14:50 14,8 C 14,8 C 14,9 C 75 % 1016,7 hPa 0,0 l/m 1,6 km/h (1 Bft) W 270 10 min 0,000 mm 230 W/m 10,4 C 14,8 C 8,0 km/h (2 Bft) 98 %
19.09.2017 15:00 14,6 C 14,6 C 14,8 C 74 % 1016,7 hPa 0,0 l/m 0,0 km/h (0 Bft) W 270 0 min 0,203 mm 149 W/m 10,0 C 14,6 C 9,7 km/h (2 Bft) 98 %
19.09.2017 15:10 14,4 C 14,4 C 14,6 C 78 % 1016,7 hPa 0,0 l/m 0,0 km/h (0 Bft) W 270 10 min 0,000 mm 183 W/m 10,6 C 14,4 C 1,6 km/h (1 Bft) 98 %
19.09.2017 15:20 14,3 C 14,3 C 14,4 C 79 % 1016,8 hPa 0,0 l/m 1,6 km/h (1 Bft) W-NW 292 10 min 0,000 mm 359 W/m 10,7 C 14,3 C 9,7 km/h (2 Bft) 98 %
19.09.2017 15:30 14,5 C 14,3 C 14,5 C 77 % 1016,8 hPa 0,0 l/m 1,6 km/h (1 Bft) NW 315 10 min 0,000 mm 369 W/m 10,5 C 14,5 C 9,7 km/h (2 Bft) 97 %
19.09.2017 15:40 14,6 C 14,5 C 14,6 C 76 % 1016,8 hPa 0,0 l/m 4,8 km/h (1 Bft) W 270 10 min 0,000 mm 279 W/m 10,4 C 14,6 C 14,5 km/h (3 Bft) 98 %
19.09.2017 15:50 14,4 C 14,4 C 14,6 C 77 % 1016,8 hPa 0,0 l/m 4,8 km/h (1 Bft) W-SW 247 10 min 0,000 mm 232 W/m 10,4 C 14,4 C 9,7 km/h (2 Bft) 97 %
19.09.2017 16:00 14,4 C 14,4 C 14,4 C 80 % 1016,9 hPa 0,0 l/m 4,8 km/h (1 Bft) W-SW 247 10 min 0,152 mm 545 W/m 11,0 C 14,4 C 9,7 km/h (2 Bft) 97 %
19.09.2017 16:10 14,4 C 14,4 C 14,5 C 77 % 1016,8 hPa 0,0 l/m 1,6 km/h (1 Bft) W-SW 247 10 min 0,000 mm 260 W/m 10,4 C 14,4 C 6,4 km/h (2 Bft) 98 %
19.09.2017 16:20 14,3 C 14,3 C 14,4 C 78 % 1016,8 hPa 0,0 l/m 1,6 km/h (1 Bft) NW 315 0 min 0,000 mm 144 W/m 10,5 C 14,3 C 8,0 km/h (2 Bft) 96 %
19.09.2017 16:30 14,4 C 14,2 C 14,4 C 77 % 1016,9 hPa 0,0 l/m 3,2 km/h (1 Bft) NW 315 10 min 0,000 mm 158 W/m 10,4 C 14,4 C 16,1 km/h (3 Bft) 98 %
19.09.2017 16:40 14,7 C 14,4 C 14,7 C 74 % 1016,9 hPa 0,0 l/m 8,0 km/h (2 Bft) W-NW 292 10 min 0,000 mm 165 W/m 10,1 C 13,8 C 16,1 km/h (3 Bft) 97 %
19.09.2017 16:50 14,4 C 14,4 C 14,7 C 75 % 1016,9 hPa 0,0 l/m 3,2 km/h (1 Bft) W-NW 292 0 min 0,000 mm 100 W/m 10,0 C 14,4 C 6,4 km/h (2 Bft) 98 %
19.09.2017 17:00 14,1 C 14,1 C 14,4 C 77 % 1016,9 hPa 0,0 l/m 3,2 km/h (1 Bft) SW 225 0 min 0,076 mm 132 W/m 10,1 C 14,1 C 8,0 km/h (2 Bft) 98 %
19.09.2017 17:10 14,0 C 14,0 C 14,4 C 78 % 1016,9 hPa 0,0 l/m 0,8 km/h (0 Bft) W-SW 240 0 min 0,001 mm 116 W/m 10,2 C 14,0 C 3,2 km/h (1 Bft) 100 %
19.09.2017 17:20 14,0 C 14,0 C 14,1 C 78 % 1017,0 hPa 0,0 l/m 2,1 km/h (1 Bft) W-SW 242 0 min 0,000 mm 90 W/m 10,2 C 14,0 C 6,4 km/h (2 Bft) 100 %
19.09.2017 17:30 13,9 C 13,9 C 14,0 C 78 % 1017,1 hPa 0,0 l/m 2,9 km/h (1 Bft) W-SW 252 0 min 0,000 mm 53 W/m 10,1 C 13,9 C 8,0 km/h (2 Bft) 98 %
19.09.2017 17:40 13,7 C 13,7 C 13,9 C 80 % 1017,2 hPa 0,0 l/m 3,1 km/h (1 Bft) W 261 0 min 0,000 mm 37 W/m 10,3 C 13,7 C 9,7 km/h (2 Bft) 97 %
19.09.2017 17:50 13,6 C 13,6 C 13,7 C 81 % 1017,2 hPa 0,0 l/m 4,4 km/h (1 Bft) W 276 0 min 0,000 mm 83 W/m 10,4 C 13,6 C 9,7 km/h (2 Bft) 97 %
19.09.2017 18:00 13,3 C 13,3 C 13,6 C 84 % 1017,1 hPa 0,0 l/m 4,3 km/h (1 Bft) W-NW 300 0 min 0,051 mm 53 W/m 10,7 C 13,3 C 8,0 km/h (2 Bft) 98 %
19.09.2017 18:10 13,1 C 13,1 C 13,3 C 84 % 1017,2 hPa 0,2 l/m 4,1 km/h (1 Bft) W-NW 296 0 min 0,000 mm 58 W/m 10,5 C 13,1 C 8,0 km/h (2 Bft) 97 %
19.09.2017 18:20 12,8 C 12,8 C 13,1 C 85 % 1017,2 hPa 0,2 l/m 4,4 km/h (1 Bft) W-NW 288 0 min 0,000 mm 53 W/m 10,3 C 12,8 C 9,7 km/h (2 Bft) 97 %
19.09.2017 18:30 12,6 C 12,6 C 12,8 C 86 % 1017,4 hPa 0,0 l/m 3,5 km/h (1 Bft) W-NW 302 0 min 0,000 mm 35 W/m 10,3 C 12,6 C 8,0 km/h (2 Bft) 97 %
19.09.2017 18:40 12,3 C 12,3 C 12,6 C 86 % 1017,5 hPa 0,0 l/m 2,6 km/h (1 Bft) W-NW 283 0 min 0,000 mm 21 W/m 10,0 C 12,3 C 8,0 km/h (2 Bft) 97 %
19.09.2017 18:50 12,1 C 12,1 C 12,3 C 86 % 1017,6 hPa 0,0 l/m 2,5 km/h (1 Bft) W-NW 296 0 min 0,000 mm 19 W/m 9,8 C 12,1 C 6,4 km/h (2 Bft) 97 %
19.09.2017 19:00 11,9 C 11,9 C 12,1 C 87 % 1017,8 hPa 0,0 l/m 1,0 km/h (0 Bft) W-NW 292 0 min 0,025 mm 19 W/m 9,8 C 11,9 C 4,8 km/h (1 Bft) 97 %
19.09.2017 19:10 11,8 C 11,8 C 11,9 C 88 % 1017,8 hPa 0,0 l/m 0,0 km/h (0 Bft) W-NW 292 0 min 0,000 mm 11 W/m 9,9 C 11,8 C 1,6 km/h (1 Bft) 97 %
19.09.2017 19:20 11,6 C 11,6 C 11,8 C 88 % 1017,8 hPa 0,0 l/m 0,0 km/h (0 Bft) W-NW 292 0 min 0,000 mm 0 W/m 9,7 C 11,6 C 0,0 km/h (0 Bft) 97 %
19.09.2017 19:30 11,5 C 11,5 C 11,6 C 87 % 1017,9 hPa 0,0 l/m 0,0 km/h (0 Bft) W-NW 292 0 min 0,000 mm 0 W/m 9,4 C 11,5 C 1,6 km/h (1 Bft) 98 %
19.09.2017 19:40 11,4 C 11,4 C 11,5 C 88 % 1017,9 hPa 0,0 l/m 0,0 km/h (0 Bft) W-NW 292 0 min 0,000 mm 0 W/m 9,5 C 11,4 C 0,0 km/h (0 Bft) 97 %
19.09.2017 19:50 11,3 C 11,3 C 11,4 C 88 % 1018,1 hPa 0,0 l/m 0,0 km/h (0 Bft) W-NW 292 0 min 0,000 mm 0 W/m 9,4 C 11,3 C 0,0 km/h (0 Bft) 97 %
19.09.2017 20:00 11,2 C 11,2 C 11,3 C 88 % 1018,2 hPa 0,0 l/m 0,0 km/h (0 Bft) W-NW 292 0 min 0,000 mm 0 W/m 9,3 C 11,2 C 0,0 km/h (0 Bft) 97 %
19.09.2017 20:10 11,1 C 11,1 C 11,2 C 89 % 1018,3 hPa 0,0 l/m 0,0 km/h (0 Bft) W-NW 292 0 min 0,000 mm 0 W/m 9,4 C 11,1 C 0,0 km/h (0 Bft) 97 %
19.09.2017 20:20 10,9 C 10,9 C 11,1 C 89 % 1018,6 hPa 0,0 l/m 0,0 km/h (0 Bft) W-NW 292 0 min 0,000 mm 0 W/m 9,2 C 10,9 C 0,0 km/h (0 Bft) 98 %
19.09.2017 20:30 10,8 C 10,8 C 10,9 C 89 % 1018,6 hPa 0,0 l/m 0,0 km/h (0 Bft) W-NW 292 0 min 0,000 mm 0 W/m 9,1 C 10,8 C 0,0 km/h (0 Bft) 97 %
19.09.2017 20:40 10,8 C 10,8 C 10,8 C 89 % 1018,6 hPa 0,0 l/m 0,0 km/h (0 Bft) W-NW 292 0 min 0,000 mm 0 W/m 9,1 C 10,8 C 0,0 km/h (0 Bft) 97 %
19.09.2017 20:50 10,7 C 10,7 C 10,8 C 89 % 1018,8 hPa 0,0 l/m 0,0 km/h (0 Bft) W-NW 292 0 min 0,000 mm 0 W/m 9,0 C 10,7 C 0,0 km/h (0 Bft) 98 %
19.09.2017 21:00 10,7 C 10,7 C 10,7 C 89 % 1018,8 hPa 0,0 l/m 0,0 km/h (0 Bft) W-NW 292 0 min 0,000 mm 0 W/m 9,0 C 10,7 C 0,0 km/h (0 Bft) 97 %
19.09.2017 21:10 10,7 C 10,7 C 10,7 C 89 % 1019,0 hPa 0,0 l/m 0,0 km/h (0 Bft) N 0 0 min 0,000 mm 0 W/m 9,0 C 10,7 C 0,0 km/h (0 Bft) 99 %
19.09.2017 21:20 10,6 C 10,6 C 10,7 C 89 % 1018,9 hPa 0,0 l/m 0,0 km/h (0 Bft) W-NW 292 0 min 0,000 mm 0 W/m 8,9 C 10,6 C 4,8 km/h (1 Bft) 100 %
19.09.2017 21:30 10,5 C 10,5 C 10,6 C 89 % 1019,1 hPa 0,0 l/m 0,0 km/h (0 Bft) W-NW 292 0 min 0,000 mm 0 W/m 8,8 C 10,5 C 3,2 km/h (1 Bft) 100 %
19.09.2017 21:40 10,4 C 10,4 C 10,5 C 89 % 1019,1 hPa 0,0 l/m 1,6 km/h (1 Bft) W-NW 292 0 min 0,000 mm 0 W/m 8,7 C 10,4 C 6,4 km/h (2 Bft) 100 %
19.09.2017 21:50 10,4 C 10,4 C 10,4 C 89 % 1019,1 hPa 0,0 l/m 1,6 km/h (1 Bft) W-NW 292 0 min 0,000 mm 0 W/m 8,7 C 10,4 C 4,8 km/h (1 Bft) 100 %
19.09.2017 22:00 10,4 C 10,4 C 10,4 C 89 % 1019,1 hPa 0,0 l/m 1,6 km/h (1 Bft) W-NW 292 0 min 0,000 mm 0 W/m 8,7 C 10,4 C 6,4 km/h (2 Bft) 100 %
19.09.2017 22:10 10,4 C 10,4 C 10,4 C 89 % 1019,2 hPa 0,0 l/m 0,0 km/h (0 Bft) N 0 0 min 0,000 mm 0 W/m 8,7 C 10,4 C 0,0 km/h (0 Bft) 100 %
19.09.2017 22:20 10,4 C 10,4 C 10,4 C 89 % 1019,4 hPa 0,0 l/m 0,0 km/h (0 Bft) W-NW 292 0 min 0,000 mm 0 W/m 8,7 C 10,4 C 6,4 km/h (2 Bft) 100 %
19.09.2017 22:30 10,4 C 10,4 C 10,4 C 89 % 1019,4 hPa 0,0 l/m 1,6 km/h (1 Bft) W-NW 292 0 min 0,000 mm 0 W/m 8,7 C 10,4 C 6,4 km/h (2 Bft) 100 %
19.09.2017 22:40 10,4 C 10,4 C 10,4 C 89 % 1019,5 hPa 0,0 l/m 0,0 km/h (0 Bft) W-NW 292 0 min 0,000 mm 0 W/m 8,7 C 10,4 C 3,2 km/h (1 Bft) 100 %
19.09.2017 22:50 10,4 C 10,4 C 10,5 C 89 % 1019,4 hPa 0,0 l/m 0,0 km/h (0 Bft) N 0 0 min 0,000 mm 0 W/m 8,7 C 10,4 C 0,0 km/h (0 Bft) 100 %
19.09.2017 23:00 10,4 C 10,4 C 10,4 C 89 % 1019,5 hPa 0,0 l/m 0,0 km/h (0 Bft) N 0 0 min 0,000 mm 0 W/m 8,7 C 10,4 C 0,0 km/h (0 Bft) 100 %
19.09.2017 23:10 10,3 C 10,3 C 10,4 C 89 % 1019,7 hPa 0,0 l/m 0,0 km/h (0 Bft) N 0 0 min 0,000 mm 0 W/m 8,6 C 10,3 C 0,0 km/h (0 Bft) 100 %
19.09.2017 23:20 10,3 C 10,3 C 10,4 C 89 % 1019,7 hPa 0,0 l/m 0,0 km/h (0 Bft) N 0 0 min 0,000 mm 0 W/m 8,6 C 10,3 C 0,0 km/h (0 Bft) 100 %
19.09.2017 23:30 10,3 C 10,3 C 10,3 C 89 % 1019,6 hPa 0,0 l/m 0,0 km/h (0 Bft) N 0 0 min 0,000 mm 0 W/m 8,6 C 10,3 C 0,0 km/h (0 Bft) 100 %
19.09.2017 23:40 10,3 C 10,3 C 10,3 C 89 % 1019,5 hPa 0,0 l/m 0,0 km/h (0 Bft) N 0 0 min 0,000 mm 0 W/m 8,6 C 10,3 C 0,0 km/h (0 Bft) 100 %
19.09.2017 23:50 10,2 C 10,2 C 10,3 C 89 % 1019,6 hPa 0,0 l/m 0,0 km/h (0 Bft) N 0 0 min 0,000 mm 0 W/m 8,5 C 10,2 C 0,0 km/h (0 Bft) 100 %
_ Min-Zeit 01:00 01:00 06:00 15:00 06:10 - 00:00 - - - - - 01:00 01:00 00:00 00:10
Minimum _ 8,2 C 8,2 C 8,2 C 74 % 1016,0 hPa - 0,0 km/h (0 Bft) - - - - - 6,5 C 8,2 C 0,0 km/h (0 Bft) 81 %
_ Max-Zeit 14:50 14:50 14:50 10:50 23:10 18:10 16:40 - - 10:00 14:00 14:40 16:00 14:40 16:30 00:20
Maximum _ 14,9 C 14,8 C 14,9 C 90 % 1019,7 hPa 0,2 l/m 8,0 km/h
W-NW (2 Bft)
- - 10 min 0,203 mm 921 W/m 11,0 C 14,8 C 16,1 km/h
S-SW (3 Bft)
100 %
Durchschnitt _ 10,8 C 10,7 C 10,8 C 86 % 1017,2 hPa #0,4 l/m 1,0 km/h (0 Bft) W-NW - #5:30 h #1,016 mm 196 W/m 8,6 C 10,8 C 4,1 km/h (1 Bft) 99 %
PRIVATE WETTERSTATION BILLIGHEIM-ALLFELD - www.neckar-odenwald-wetter.de - Holger Sonntag